createdAt,value
2023-04-18T00:01:52.577Z,5.47
2023-04-18T00:04:20.037Z,5.36
2023-04-18T00:06:49.638Z,5.41
2023-04-18T00:09:16.503Z,5.34
2023-04-18T00:11:43.587Z,5.27
2023-04-18T00:14:10.506Z,5.34
2023-04-18T00:16:38.170Z,5.34
2023-04-18T00:19:05.258Z,5.25
2023-04-18T00:21:32.128Z,5.27
2023-04-18T00:23:58.923Z,5.27
2023-04-18T00:26:27.220Z,5.33
2023-04-18T00:28:53.941Z,5.26
2023-04-18T00:31:20.763Z,5.34
2023-04-18T00:33:47.682Z,5.33
2023-04-18T00:36:14.472Z,5.35
2023-04-18T00:38:41.304Z,5.26
2023-04-18T00:41:08.086Z,5.32
2023-04-18T00:43:35.147Z,5.26
2023-04-18T00:46:01.965Z,5.33
2023-04-18T00:48:30.132Z,5.26
2023-04-18T00:50:57.706Z,5.23
2023-04-18T00:53:24.660Z,5.17
2023-04-18T00:55:51.595Z,5.18
2023-04-18T00:58:18.314Z,5.19
2023-04-18T01:00:45.770Z,5.16
2023-04-18T01:03:14.540Z,5.16
2023-04-18T01:05:41.773Z,5.21
2023-04-18T01:08:08.700Z,5.16
2023-04-18T01:10:36.267Z,5.13
2023-04-18T01:13:21.459Z,5.11
2023-04-18T01:15:50.425Z,5.06
2023-04-18T01:18:18.239Z,5.12
2023-04-18T01:20:54.672Z,5.09
2023-04-18T01:23:21.597Z,5.05
2023-04-18T01:25:51.827Z,4.94
2023-04-18T01:28:22.710Z,4.94
2023-04-18T01:30:49.796Z,4.98
2023-04-18T01:33:16.624Z,5.00
2023-04-18T01:35:43.325Z,4.89
2023-04-18T01:38:10.031Z,4.91
2023-04-18T01:40:36.819Z,4.90
2023-04-18T01:43:03.556Z,4.88
2023-04-18T01:45:30.303Z,4.84
2023-04-18T01:47:57.103Z,4.88
2023-04-18T01:50:24.009Z,4.83
2023-04-18T01:52:51.010Z,4.91
2023-04-18T01:55:17.972Z,4.87
2023-04-18T01:57:44.753Z,4.84
2023-04-18T02:00:12.086Z,4.84
2023-04-18T02:02:38.958Z,4.86
2023-04-18T02:05:06.264Z,4.83
2023-04-18T02:07:32.983Z,4.90
2023-04-18T02:09:59.764Z,4.79
2023-04-18T02:12:26.580Z,4.82
2023-04-18T02:14:53.720Z,4.86
2023-04-18T02:17:21.513Z,4.88
2023-04-18T02:19:48.426Z,4.84
2023-04-18T02:22:15.181Z,4.78
2023-04-18T02:24:41.921Z,4.72
2023-04-18T02:27:09.720Z,4.75
2023-04-18T02:29:36.605Z,4.65
2023-04-18T02:32:03.856Z,4.71
2023-04-18T02:34:32.445Z,4.79
2023-04-18T02:36:59.376Z,4.74
2023-04-18T02:39:26.113Z,4.72
2023-04-18T02:41:52.878Z,4.69
2023-04-18T02:44:20.292Z,4.64
2023-04-18T02:46:47.101Z,4.71
2023-04-18T02:49:14.256Z,4.76
2023-04-18T02:51:41.077Z,4.74
2023-04-18T02:54:07.989Z,4.75
2023-04-18T02:56:39.853Z,4.74
2023-04-18T02:59:07.199Z,4.67
2023-04-18T03:01:34.156Z,4.72
2023-04-18T03:04:01.117Z,4.66
2023-04-18T03:06:27.883Z,4.73
2023-04-18T03:08:55.716Z,4.73
2023-04-18T03:11:22.601Z,4.79
2023-04-18T03:13:49.302Z,4.84
2023-04-18T03:16:16.779Z,4.93
2023-04-18T03:18:43.798Z,4.93
2023-04-18T03:21:11.423Z,4.94
2023-04-18T03:23:38.379Z,4.92
2023-04-18T03:26:08.741Z,5.04
2023-04-18T03:28:35.629Z,5.09
2023-04-18T03:31:02.487Z,5.11
2023-04-18T03:33:29.376Z,5.16
2023-04-18T03:35:56.265Z,5.21
2023-04-18T03:38:23.033Z,5.31
2023-04-18T03:40:49.948Z,5.34
2023-04-18T03:43:16.707Z,5.39
2023-04-18T03:45:44.389Z,5.39
2023-04-18T03:48:11.116Z,5.40
2023-04-18T03:50:37.825Z,5.37
2023-04-18T03:53:04.654Z,5.49
2023-04-18T03:55:31.466Z,5.47
2023-04-18T03:57:59.229Z,5.45
2023-04-18T04:00:26.426Z,5.45
2023-04-18T04:02:53.360Z,5.56
2023-04-18T04:05:20.279Z,5.56
2023-04-18T04:07:47.433Z,5.52
2023-04-18T04:10:14.371Z,5.66
2023-04-18T04:12:41.370Z,5.61
2023-04-18T04:15:08.620Z,5.68
2023-04-18T04:17:35.466Z,5.71
2023-04-18T04:20:02.591Z,5.78
2023-04-18T04:22:29.282Z,5.72
2023-04-18T04:24:57.773Z,5.75
2023-04-18T04:27:25.121Z,5.81
2023-04-18T04:29:52.336Z,5.87
2023-04-18T04:32:20.295Z,5.90
2023-04-18T04:34:47.128Z,5.93
2023-04-18T04:37:19.802Z,5.99
2023-04-18T04:39:46.579Z,6.05
2023-04-18T04:42:13.418Z,6.07
2023-04-18T04:44:41.604Z,6.11
2023-04-18T04:47:08.512Z,6.14
2023-04-18T04:49:35.265Z,6.14
2023-04-18T04:52:02.934Z,6.23
2023-04-18T04:54:30.152Z,6.24
2023-04-18T04:56:56.904Z,6.26
2023-04-18T04:59:23.650Z,6.34
2023-04-18T05:01:50.519Z,6.43
2023-04-18T05:04:17.686Z,6.37
2023-04-18T05:06:45.434Z,6.45
2023-04-18T05:09:12.140Z,6.45
2023-04-18T05:11:38.848Z,6.50
2023-04-18T05:14:05.690Z,6.56
2023-04-18T05:16:32.931Z,6.61
2023-04-18T05:18:59.777Z,6.66
2023-04-18T05:21:28.588Z,6.70
2023-04-18T05:23:56.299Z,6.76
2023-04-18T05:26:23.357Z,6.60
2023-04-18T05:28:50.220Z,6.75
2023-04-18T05:31:17.066Z,6.71
2023-04-18T05:33:43.902Z,6.81
2023-04-18T05:36:10.742Z,6.81
2023-04-18T05:38:37.667Z,6.90
2023-04-18T05:41:05.418Z,6.85
2023-04-18T05:43:32.199Z,6.94
2023-04-18T05:45:58.855Z,7.04
2023-04-18T05:48:25.728Z,7.15
2023-04-18T05:50:52.446Z,7.33
2023-04-18T05:53:19.182Z,7.74
2023-04-18T05:55:48.582Z,8.17
2023-04-18T05:58:15.852Z,8.35
2023-04-18T06:00:43.052Z,8.47
2023-04-18T06:03:11.274Z,8.96
2023-04-18T06:05:38.690Z,10.15
2023-04-18T06:08:05.949Z,10.15
2023-04-18T06:10:33.105Z,9.72
2023-04-18T06:12:59.951Z,9.67
2023-04-18T06:15:26.827Z,10.57
2023-04-18T06:17:53.824Z,12.31
2023-04-18T06:20:20.744Z,11.45
2023-04-18T06:22:47.441Z,11.69
2023-04-18T06:25:14.517Z,10.46
2023-04-18T06:27:41.375Z,9.41
2023-04-18T06:30:08.778Z,9.17
2023-04-18T06:32:35.620Z,9.02
2023-04-18T06:35:02.426Z,8.82
2023-04-18T06:37:29.506Z,8.94
2023-04-18T06:39:56.250Z,8.62
2023-04-18T06:42:23.071Z,8.66
2023-04-18T06:44:50.260Z,8.67
2023-04-18T06:47:17.195Z,8.55
2023-04-18T06:49:43.996Z,8.58
2023-04-18T06:52:10.973Z,9.26
2023-04-18T06:54:37.766Z,8.47
2023-04-18T06:57:04.559Z,8.41
2023-04-18T06:59:31.628Z,8.38
2023-04-18T07:01:58.478Z,8.51
2023-04-18T07:04:25.401Z,8.64
2023-04-18T07:06:52.517Z,8.27
2023-04-18T07:09:19.604Z,8.15
2023-04-18T07:11:46.352Z,8.29
2023-04-18T07:14:13.319Z,8.35
2023-04-18T07:16:40.567Z,8.46
2023-04-18T07:19:07.526Z,8.29
2023-04-18T07:21:34.360Z,8.41
2023-04-18T07:24:01.071Z,8.48
2023-04-18T07:26:27.997Z,8.61
2023-04-18T07:28:54.746Z,8.60
2023-04-18T07:31:21.578Z,8.42
2023-04-18T07:33:48.369Z,8.62
2023-04-18T07:36:15.385Z,8.44
2023-04-18T07:38:42.565Z,8.60
2023-04-18T07:41:09.396Z,8.65
2023-04-18T07:43:36.193Z,8.75
2023-04-18T07:46:03.131Z,8.67
2023-04-18T07:48:29.947Z,8.72
2023-04-18T07:50:56.747Z,8.81
2023-04-18T07:53:23.600Z,8.88
2023-04-18T07:55:50.489Z,8.90
2023-04-18T07:58:17.850Z,9.05
2023-04-18T08:00:44.777Z,9.14
2023-04-18T08:03:12.726Z,9.04
2023-04-18T08:05:41.205Z,9.08
2023-04-18T08:08:10.076Z,9.10
2023-04-18T08:10:37.389Z,9.09
2023-04-18T08:13:04.933Z,9.31
2023-04-18T08:15:32.735Z,9.35
2023-04-18T08:18:00.915Z,9.31
2023-04-18T08:20:28.112Z,9.06
2023-04-18T08:25:24.877Z,9.35
2023-04-18T08:27:51.922Z,9.38
2023-04-18T08:30:18.904Z,9.31
2023-04-18T08:32:45.737Z,9.39
2023-04-18T08:35:12.586Z,9.52
2023-04-18T08:37:39.381Z,9.63
2023-04-18T08:40:07.279Z,9.82
2023-04-18T08:42:35.333Z,9.83
2023-04-18T08:45:02.684Z,9.71
2023-04-18T08:47:30.131Z,9.82
2023-04-18T08:49:58.456Z,10.04
2023-04-18T08:52:27.483Z,9.96
2023-04-18T08:54:54.190Z,9.91
2023-04-18T08:57:26.815Z,10.06
2023-04-18T08:59:54.318Z,10.04
2023-04-18T09:02:26.815Z,10.08
2023-04-18T09:04:55.702Z,9.94
2023-04-18T09:07:29.776Z,9.72
2023-04-18T09:09:58.216Z,9.75
2023-04-18T09:12:27.816Z,9.80
2023-04-18T09:14:57.778Z,10.33
2023-04-18T09:17:35.454Z,10.44
2023-04-18T09:20:05.254Z,10.18
2023-04-18T09:22:54.373Z,10.64
2023-04-18T09:25:35.078Z,10.50
2023-04-18T09:28:02.931Z,10.57
2023-04-18T09:30:33.127Z,10.59
2023-04-18T09:33:01.509Z,10.86
2023-04-18T09:35:28.449Z,10.81
2023-04-18T09:37:55.524Z,10.72
2023-04-18T09:40:22.414Z,10.72
2023-04-18T09:42:51.692Z,10.55
2023-04-18T09:45:18.754Z,10.72
2023-04-18T09:47:45.793Z,10.71
2023-04-18T09:50:12.894Z,10.75
2023-04-18T09:52:42.053Z,10.90
2023-04-18T09:55:15.080Z,10.67
2023-04-18T09:57:45.518Z,10.75
2023-04-18T10:00:24.836Z,11.04
2023-04-18T10:03:08.677Z,11.23
2023-04-18T10:05:38.756Z,11.03
2023-04-18T10:08:07.313Z,11.53
2023-04-18T10:10:34.131Z,11.99
2023-04-18T10:13:02.783Z,12.37
2023-04-18T10:15:31.258Z,12.15
2023-04-18T10:18:05.780Z,12.04
2023-04-18T10:20:34.969Z,12.38
2023-04-18T10:23:31.374Z,11.99
2023-04-18T10:25:59.071Z,12.33
2023-04-18T10:28:27.517Z,12.35
2023-04-18T10:30:56.392Z,11.94
2023-04-18T10:33:32.218Z,12.46
2023-04-18T10:36:17.856Z,12.87
2023-04-18T10:38:50.014Z,12.80
2023-04-18T10:41:22.987Z,13.17
2023-04-18T10:44:14.595Z,12.87
2023-04-18T10:46:48.914Z,13.49
2023-04-18T10:49:25.864Z,14.13
2023-04-18T10:51:55.730Z,13.58
2023-04-18T10:54:28.419Z,13.93
2023-04-18T10:56:57.198Z,14.04
2023-04-18T10:59:25.371Z,14.32
2023-04-18T11:02:07.450Z,14.43
2023-04-18T11:04:34.532Z,14.37
2023-04-18T11:07:01.554Z,14.36
2023-04-18T11:09:28.295Z,14.36
2023-04-18T11:12:12.063Z,14.63
2023-04-18T11:14:47.629Z,15.17
2023-04-18T11:17:20.468Z,15.42
2023-04-18T11:19:48.097Z,15.61
2023-04-18T11:22:15.727Z,15.71
2023-04-18T11:24:42.485Z,15.28
2023-04-18T11:27:11.080Z,15.61
2023-04-18T11:29:38.596Z,15.51
2023-04-18T11:32:09.428Z,16.11
2023-04-18T11:34:36.595Z,17.01
2023-04-18T11:37:07.512Z,17.58
2023-04-18T11:39:43.915Z,17.75
2023-04-18T11:42:11.405Z,17.22
2023-04-18T11:44:39.989Z,16.85
2023-04-18T11:47:23.262Z,17.10
2023-04-18T11:49:57.280Z,16.77
2023-04-18T11:52:24.997Z,17.21
2023-04-18T11:54:51.814Z,17.61
2023-04-18T11:57:24.327Z,17.78
2023-04-18T11:59:52.972Z,18.12
2023-04-18T12:02:21.547Z,18.12
2023-04-18T12:04:53.819Z,17.54
2023-04-18T12:07:34.856Z,17.36
2023-04-18T12:10:02.612Z,16.77
2023-04-18T12:12:29.450Z,16.49
2023-04-18T12:15:05.623Z,16.42
2023-04-18T12:17:32.727Z,16.76
2023-04-18T12:20:10.161Z,16.99
2023-04-18T12:22:49.482Z,16.80
2023-04-18T12:25:26.170Z,16.02
2023-04-18T12:27:58.270Z,15.66
2023-04-18T12:30:30.965Z,15.63
2023-04-18T12:33:04.784Z,15.43
2023-04-18T12:35:32.383Z,15.19
2023-04-18T12:38:01.409Z,15.02
2023-04-18T12:40:29.612Z,14.67
2023-04-18T12:42:56.608Z,14.38
2023-04-18T12:45:24.365Z,14.18
2023-04-18T12:47:53.730Z,14.08
2023-04-18T12:50:23.344Z,13.95
2023-04-18T12:52:53.117Z,13.92
2023-04-18T12:55:21.546Z,13.64
2023-04-18T12:57:51.663Z,13.50
2023-04-18T13:00:18.424Z,13.54
2023-04-18T13:02:45.973Z,13.54
2023-04-18T13:05:14.615Z,13.54
2023-04-18T13:07:42.688Z,13.55
2023-04-18T13:10:11.917Z,13.46
2023-04-18T13:12:40.063Z,13.33
2023-04-18T13:15:08.076Z,13.51
2023-04-18T13:17:36.952Z,13.24
2023-04-18T13:20:06.700Z,13.29
2023-04-18T13:22:33.936Z,13.40
2023-04-18T13:25:00.700Z,13.27
2023-04-18T13:27:27.632Z,13.22
2023-04-18T13:29:55.335Z,13.20
2023-04-18T13:32:22.242Z,13.76
2023-04-18T13:34:49.437Z,14.11
2023-04-18T13:37:16.509Z,14.15
2023-04-18T13:39:43.339Z,13.81
2023-04-18T13:42:10.196Z,13.69
2023-04-18T13:44:37.708Z,13.30
2023-04-18T13:47:05.954Z,13.62
2023-04-18T13:49:34.496Z,13.54
2023-04-18T13:52:01.475Z,13.55
2023-04-18T13:54:30.288Z,13.50
2023-04-18T13:56:58.874Z,14.56
2023-04-18T13:59:26.462Z,15.22
2023-04-18T14:01:54.306Z,14.88
2023-04-18T14:04:22.468Z,14.26
2023-04-18T14:06:50.507Z,14.33
2023-04-18T14:09:17.974Z,14.00
2023-04-18T14:11:45.278Z,14.07
2023-04-18T14:14:12.103Z,13.83
2023-04-18T14:16:38.945Z,13.77
2023-04-18T14:19:05.950Z,13.45
2023-04-18T14:21:32.819Z,13.31
2023-04-18T14:23:59.535Z,13.36
2023-04-18T14:26:26.405Z,13.15
2023-04-18T14:28:53.192Z,13.25
2023-04-18T14:31:20.084Z,13.32
2023-04-18T14:33:46.800Z,13.34
2023-04-18T14:36:15.384Z,13.41
2023-04-18T14:38:42.447Z,13.31
2023-04-18T14:41:09.413Z,13.44
2023-04-18T14:43:36.651Z,13.18
2023-04-18T14:46:03.448Z,13.02
2023-04-18T14:48:30.219Z,13.17
2023-04-18T14:51:02.495Z,13.61
2023-04-18T14:53:29.476Z,14.07
2023-04-18T14:55:56.328Z,14.66
2023-04-18T14:58:23.182Z,14.92
2023-04-18T15:00:51.306Z,15.02
2023-04-18T15:03:18.463Z,14.97
2023-04-18T15:05:48.684Z,14.50
2023-04-18T15:08:16.150Z,14.42
2023-04-18T15:10:43.064Z,14.60
2023-04-18T15:13:11.028Z,14.29
2023-04-18T15:15:39.713Z,14.14
2023-04-18T15:18:08.422Z,13.97
2023-04-18T15:20:39.547Z,13.99
2023-04-18T15:23:07.035Z,14.13
2023-04-18T15:25:35.688Z,14.08
2023-04-18T15:28:02.730Z,14.45
2023-04-18T15:30:29.774Z,14.70
2023-04-18T15:32:57.199Z,14.78
2023-04-18T15:35:24.439Z,15.32
2023-04-18T15:37:51.630Z,15.45
2023-04-18T15:40:18.820Z,15.55
2023-04-18T15:42:46.096Z,15.14
2023-04-18T15:45:13.265Z,14.95
2023-04-18T15:47:41.301Z,15.22
2023-04-18T15:50:09.189Z,15.71
2023-04-18T15:52:36.704Z,15.73
2023-04-18T15:55:04.811Z,15.73
2023-04-18T15:57:31.916Z,16.00
2023-04-18T15:59:59.825Z,15.33
2023-04-18T16:02:27.086Z,15.59
2023-04-18T16:04:53.999Z,15.28
2023-04-18T16:07:21.087Z,15.43
2023-04-18T16:09:47.888Z,15.88
2023-04-18T16:12:14.704Z,15.16
2023-04-18T16:14:41.544Z,15.33
2023-04-18T16:17:08.586Z,15.26
2023-04-18T16:19:38.365Z,15.28
2023-04-18T16:22:07.254Z,15.28
2023-04-18T16:24:34.752Z,15.25
2023-04-18T16:27:01.672Z,15.46
2023-04-18T16:29:28.414Z,15.36
2023-04-18T16:31:55.221Z,15.29
2023-04-18T16:34:22.007Z,14.77
2023-04-18T16:36:51.005Z,14.91
2023-04-18T16:39:19.169Z,15.08
2023-04-18T16:41:45.970Z,14.39
2023-04-18T16:44:13.144Z,14.43
2023-04-18T16:46:40.204Z,13.95
2023-04-18T16:49:07.080Z,13.77
2023-04-18T16:51:36.219Z,14.05
2023-04-18T16:54:03.853Z,13.25
2023-04-18T16:56:30.678Z,13.11
2023-04-18T16:58:58.576Z,12.78
2023-04-18T17:01:25.583Z,12.80
2023-04-18T17:03:52.561Z,12.62
2023-04-18T17:06:19.443Z,12.45
2023-04-18T17:08:46.221Z,12.48
2023-04-18T17:11:13.041Z,12.40
2023-04-18T17:13:39.799Z,12.32
2023-04-18T17:16:07.631Z,12.27
2023-04-18T17:18:34.431Z,12.01
2023-04-18T17:21:01.304Z,11.91
2023-04-18T17:23:28.152Z,11.83
2023-04-18T17:25:54.931Z,11.73
2023-04-18T17:28:23.738Z,11.74
2023-04-18T17:30:50.717Z,11.61
2023-04-18T17:33:17.534Z,11.62
2023-04-18T17:35:44.403Z,11.68
2023-04-18T17:38:13.475Z,11.55
2023-04-18T17:40:40.398Z,11.37
2023-04-18T17:43:07.389Z,11.43
2023-04-18T17:45:34.235Z,11.44
2023-04-18T17:48:03.153Z,11.37
2023-04-18T17:50:30.093Z,11.24
2023-04-18T17:52:57.496Z,11.23
2023-04-18T17:55:26.103Z,11.17
2023-04-18T17:57:52.956Z,11.22
2023-04-18T18:00:20.095Z,11.00
2023-04-18T18:02:47.249Z,11.00
2023-04-18T18:05:14.334Z,10.92
2023-04-18T18:07:45.892Z,10.94
2023-04-18T18:10:22.394Z,10.79
2023-04-18T18:12:49.359Z,10.65
2023-04-18T18:15:16.291Z,10.49
2023-04-18T18:17:43.366Z,10.56
2023-04-18T18:20:12.912Z,10.52
2023-04-18T18:22:39.741Z,10.49
2023-04-18T18:25:07.503Z,10.19
2023-04-18T18:27:34.367Z,10.20
2023-04-18T18:30:01.458Z,10.04
2023-04-18T18:32:28.283Z,9.92
2023-04-18T18:34:55.421Z,9.89
2023-04-18T18:37:24.562Z,9.85
2023-04-18T18:39:51.462Z,9.69
2023-04-18T18:42:18.272Z,9.62
2023-04-18T18:44:45.363Z,9.45
2023-04-18T18:47:12.261Z,9.37
2023-04-18T18:49:40.766Z,9.31
2023-04-18T18:52:07.690Z,9.30
2023-04-18T18:54:34.655Z,9.35
2023-04-18T18:57:04.386Z,9.17
2023-04-18T18:59:31.392Z,9.17
2023-04-18T19:01:58.318Z,9.10
2023-04-18T19:04:26.025Z,9.05
2023-04-18T19:06:53.614Z,8.92
2023-04-18T19:09:20.429Z,8.68
2023-04-18T19:11:47.219Z,8.71
2023-04-18T19:14:14.078Z,8.63
2023-04-18T19:16:41.033Z,8.60
2023-04-18T19:19:08.336Z,8.50
2023-04-18T19:21:35.180Z,8.50
2023-04-18T19:24:01.943Z,8.60
2023-04-18T19:26:28.694Z,8.51
2023-04-18T19:28:55.802Z,8.53
2023-04-18T19:31:22.910Z,8.53
2023-04-18T19:33:50.139Z,8.49
2023-04-18T19:36:17.320Z,8.52
2023-04-18T19:38:44.196Z,8.42
2023-04-18T19:41:11.123Z,8.38
2023-04-18T19:43:38.418Z,8.34
2023-04-18T19:46:05.485Z,8.33
2023-04-18T19:48:32.333Z,8.26
2023-04-18T19:50:59.137Z,8.21
2023-04-18T19:53:26.037Z,8.09
2023-04-18T19:55:54.911Z,7.97
2023-04-18T19:58:39.795Z,8.05
2023-04-18T20:01:07.615Z,8.14
2023-04-18T20:03:34.888Z,8.02
2023-04-18T20:06:01.835Z,8.09
2023-04-18T20:08:29.293Z,8.05
2023-04-18T20:10:56.588Z,8.02
2023-04-18T20:13:23.550Z,8.00
2023-04-18T20:15:50.392Z,7.91
2023-04-18T20:18:17.316Z,7.92
2023-04-18T20:20:44.328Z,7.92
2023-04-18T20:23:11.394Z,7.89
2023-04-18T20:25:38.182Z,7.79
2023-04-18T20:28:05.357Z,7.77
2023-04-18T20:30:38.384Z,7.89
2023-04-18T20:33:05.526Z,7.78
2023-04-18T20:35:32.530Z,7.73
2023-04-18T20:38:00.344Z,7.67
2023-04-18T20:40:28.116Z,7.77
2023-04-18T20:42:57.874Z,7.72
2023-04-18T20:45:25.230Z,7.62
2023-04-18T20:47:52.095Z,7.53
2023-04-18T20:50:20.431Z,7.54
2023-04-18T20:52:47.722Z,7.46
2023-04-18T20:55:16.912Z,7.38
2023-04-18T20:57:43.895Z,7.34
2023-04-18T21:00:13.892Z,7.29
2023-04-18T21:02:41.656Z,7.24
2023-04-18T21:05:08.901Z,7.28
2023-04-18T21:07:36.280Z,7.29
2023-04-18T21:10:06.648Z,7.25
2023-04-18T21:12:33.393Z,7.25
2023-04-18T21:15:00.452Z,7.24
2023-04-18T21:17:27.229Z,7.19
2023-04-18T21:19:55.746Z,7.27
2023-04-18T21:22:22.472Z,7.25
2023-04-18T21:24:49.232Z,7.20
2023-04-18T21:27:16.296Z,7.18
2023-04-18T21:29:43.107Z,7.20
2023-04-18T21:32:09.920Z,7.20
2023-04-18T21:34:36.796Z,7.17
2023-04-18T21:37:03.976Z,7.07
2023-04-18T21:39:31.057Z,7.04
2023-04-18T21:41:57.935Z,7.00
2023-04-18T21:44:24.747Z,7.05
2023-04-18T21:46:51.557Z,7.01
2023-04-18T21:49:18.398Z,7.01
2023-04-18T21:51:45.383Z,7.01
2023-04-18T21:54:12.223Z,6.91
2023-04-18T21:56:39.125Z,6.96
2023-04-18T21:59:05.842Z,6.87
2023-04-18T22:01:34.397Z,6.85
2023-04-18T22:04:02.055Z,6.86
2023-04-18T22:06:29.369Z,6.84
2023-04-18T22:08:56.064Z,6.90
2023-04-18T22:11:23.726Z,6.82
2023-04-18T22:13:54.125Z,6.83
2023-04-18T22:16:24.460Z,6.83
2023-04-18T22:18:51.443Z,6.81
2023-04-18T22:21:18.207Z,6.71
2023-04-18T22:23:44.870Z,6.80
2023-04-18T22:26:11.574Z,6.75
2023-04-18T22:28:38.339Z,6.70
2023-04-18T22:31:05.419Z,6.70
2023-04-18T22:33:32.153Z,6.68
2023-04-18T22:35:59.130Z,7.45
2023-04-18T22:38:25.877Z,8.11
2023-04-18T22:40:52.705Z,8.21
2023-04-18T22:43:22.947Z,8.37
2023-04-18T22:45:50.122Z,8.43
2023-04-18T22:48:17.197Z,8.41
2023-04-18T22:50:44.070Z,8.38
2023-04-18T22:53:11.194Z,8.16
2023-04-18T22:55:42.352Z,8.53
2023-04-18T22:58:10.632Z,8.20
2023-04-18T23:00:37.849Z,8.33
2023-04-18T23:03:04.794Z,8.37
2023-04-18T23:05:31.765Z,8.59
2023-04-18T23:08:00.356Z,8.64
2023-04-18T23:10:27.917Z,8.33
2023-04-18T23:12:54.678Z,8.79
2023-04-18T23:15:22.796Z,8.56
2023-04-18T23:17:55.169Z,8.81
2023-04-18T23:20:23.759Z,8.68
2023-04-18T23:22:51.739Z,8.41
2023-04-18T23:25:19.760Z,8.76
2023-04-18T23:27:46.951Z,8.72
2023-04-18T23:30:13.693Z,8.64
2023-04-18T23:32:40.413Z,8.46
2023-04-18T23:35:07.381Z,8.41
2023-04-18T23:37:34.255Z,7.46
2023-04-18T23:40:01.052Z,7.19
2023-04-18T23:42:27.839Z,7.14
2023-04-18T23:44:54.659Z,6.99
2023-04-18T23:47:21.994Z,6.82
2023-04-18T23:49:48.767Z,6.71
2023-04-18T23:52:15.573Z,6.68
2023-04-18T23:54:42.530Z,6.56
2023-04-18T23:57:09.230Z,6.56
2023-04-18T23:59:36.101Z,6.61
